Time;durP1;ratioP1;P1;durP2;ratioP2;P2;SDS_P1;SDS_P2;PMS_P1;PMS_P2;Temp;Humidity;BMP_temperature;BMP_pressure;BME280_temperature;BME280_humidity;BME280_pressure;Samples;Min_cycle;Max_cycle;Signal;HPM_P1;HPM_P2
2023/05/18 00:02:26;;;;;;;6.00;1.90;;;;;;;9.53;61.63;100845.34;10421999;28;20045;-73
2023/05/18 00:07:32;;;;;;;5.75;1.60;;;;;;;9.25;63.80;100850.97;10420659;28;20112;-72
2023/05/18 00:12:35;;;;;;;6.93;1.70;;;;;;;9.37;62.49;100851.69;10420780;28;20065;-72
2023/05/18 00:17:37;;;;;;;6.13;1.70;;;;;;;9.08;64.32;100860.81;10419369;28;20064;-73
2023/05/18 00:22:41;;;;;;;9.40;2.00;;;;;;;8.90;65.65;100872.41;10401975;28;20049;-73
2023/05/18 00:27:43;;;;;;;7.28;1.63;;;;;;;8.88;66.54;100863.66;10419445;28;20045;-73
2023/05/18 00:32:45;;;;;;;4.32;1.50;;;;;;;8.81;67.33;100869.88;10401800;28;20069;-73
2023/05/18 00:37:46;;;;;;;8.55;2.30;;;;;;;8.97;66.46;100870.56;10401288;28;20042;-72
2023/05/18 00:42:48;;;;;;;8.95;1.92;;;;;;;8.90;66.46;100871.50;10403170;28;20048;-73
2023/05/18 00:47:50;;;;;;;5.25;1.77;;;;;;;8.84;66.23;100877.69;10402169;28;20133;-73
2023/05/18 00:52:52;;;;;;;4.18;1.65;;;;;;;9.07;65.82;100886.19;10385808;28;20434;-73
2023/05/18 00:57:55;;;;;;;10.63;2.05;;;;;;;8.94;65.67;100892.44;10418956;28;20124;-73
2023/05/18 01:02:57;;;;;;;6.63;1.85;;;;;;;8.74;65.95;100897.03;10419448;28;20095;-73
2023/05/18 01:08:01;;;;;;;6.47;2.40;;;;;;;8.82;65.63;100884.72;10418052;28;20073;-73
2023/05/18 01:13:09;;;;;;;4.82;1.80;;;;;;;8.54;66.87;100890.25;10400534;28;20104;-73
2023/05/18 01:18:32;;;;;;;7.53;1.70;;;;;;;8.45;68.16;100895.56;10418806;28;20037;-73
2023/05/18 01:23:44;;;;;;;5.35;1.88;;;;;;;8.35;69.14;100902.59;10399982;28;20494;-73
2023/05/18 01:28:48;;;;;;;5.68;1.88;;;;;;;8.13;70.88;100905.41;10400120;28;20049;-73
2023/05/18 01:33:50;;;;;;;5.22;1.42;;;;;;;8.08;71.36;100913.31;10417827;28;20455;-73
2023/05/18 01:38:54;;;;;;;7.90;1.92;;;;;;;8.04;72.00;100911.59;10399902;28;20045;-73
2023/05/18 01:43:58;;;;;;;4.82;1.80;;;;;;;8.03;71.54;100902.00;10399099;28;20514;-73
2023/05/18 01:49:12;;;;;;;8.68;2.30;;;;;;;7.97;72.05;100913.41;10416770;28;20053;-73
2023/05/18 01:54:16;;;;;;;9.00;2.13;;;;;;;8.22;70.72;100905.34;10382759;28;20113;-73
2023/05/18 01:59:18;;;;;;;7.05;2.25;;;;;;;8.02;72.10;100908.13;10416932;28;20034;-73
2023/05/18 02:04:20;;;;;;;10.57;2.40;;;;;;;8.18;70.86;100908.88;10399105;28;20041;-73
2023/05/18 02:09:22;;;;;;;7.22;2.05;;;;;;;8.21;69.15;100909.72;10398513;28;20049;-73
2023/05/18 02:14:24;;;;;;;8.18;2.40;;;;;;;8.21;68.62;100920.19;10398429;28;20104;-73
2023/05/18 02:19:29;;;;;;;6.40;1.92;;;;;;;8.13;68.64;100914.13;10398564;28;20091;-73
2023/05/18 02:24:32;;;;;;;12.15;2.25;;;;;;;8.16;68.63;100913.25;10416389;28;20048;-73
2023/05/18 02:29:34;;;;;;;9.77;2.10;;;;;;;8.09;68.85;100913.28;10416692;28;20034;-73
2023/05/18 02:34:37;;;;;;;4.97;1.67;;;;;;;7.76;70.56;100921.38;10416594;28;20112;-73
2023/05/18 02:39:39;;;;;;;7.55;1.98;;;;;;;7.48;73.40;100921.53;10398108;28;20041;-73
2023/05/18 02:44:41;;;;;;;5.32;1.80;;;;;;;7.50;74.28;100924.16;10424290;28;20041;-73
2023/05/18 02:49:44;;;;;;;4.85;1.75;;;;;;;7.48;75.03;100921.53;10406624;28;20061;-73
2023/05/18 02:54:46;;;;;;;6.45;2.05;;;;;;;7.53;74.22;100935.47;10406188;28;20099;-73
2023/05/18 02:59:54;;;;;;;6.35;2.22;;;;;;;7.65;74.48;100936.25;10406487;28;20549;-73
2023/05/18 03:04:56;;;;;;;6.20;1.73;;;;;;;7.81;73.17;100935.31;10405765;28;20045;-73
2023/05/18 03:09:58;;;;;;;6.10;1.98;;;;;;;7.62;74.07;100938.91;10404972;28;20046;-73
2023/05/18 03:15:00;;;;;;;7.10;1.98;;;;;;;7.25;76.20;100939.94;10404797;28;20160;-73
2023/05/18 03:20:03;;;;;;;6.57;2.22;;;;;;;7.22;76.58;100939.97;10406352;28;20073;-74
2023/05/18 03:25:06;;;;;;;6.90;1.75;;;;;;;7.22;77.12;100945.19;10404954;28;20041;-73
2023/05/18 03:30:09;;;;;;;7.88;2.05;;;;;;;7.27;76.79;100945.16;10404767;28;20054;-73
2023/05/18 03:35:10;;;;;;;8.57;3.17;;;;;;;7.09;78.88;100948.72;10422447;28;20041;-73
2023/05/18 03:40:14;;;;;;;5.18;2.47;;;;;;;7.09;79.62;100953.94;10420079;23;20048;-69
2023/05/18 03:45:18;;;;;;;6.63;2.40;;;;;;;7.06;80.10;100952.19;10462403;28;20056;-69
2023/05/18 03:50:20;;;;;;;4.13;1.98;;;;;;;7.37;79.16;100964.31;10444785;28;20044;-69
2023/05/18 03:55:22;;;;;;;6.50;2.33;;;;;;;7.43;77.45;100964.28;10461356;28;20037;-69
2023/05/18 04:00:25;;;;;;;5.18;2.08;;;;;;;7.16;79.59;100965.25;10443806;28;20094;-69
2023/05/18 04:05:27;;;;;;;9.40;2.83;;;;;;;7.17;80.77;100969.59;10461647;28;20098;-69
2023/05/18 04:10:30;;;;;;;5.18;2.28;;;;;;;7.66;78.01;100978.16;10462426;28;20041;-69
2023/05/18 04:15:32;;;;;;;6.63;2.25;;;;;;;7.74;77.62;100978.94;10443200;28;20041;-70
2023/05/18 04:20:34;;;;;;;5.55;2.15;;;;;;;7.95;75.86;100982.34;10462181;28;20040;-70
2023/05/18 04:25:38;;;;;;;8.05;2.47;;;;;;;7.81;76.25;100987.66;10442798;28;20037;-71
2023/05/18 04:30:40;;;;;;;6.15;2.40;;;;;;;7.63;76.17;100988.63;10442600;28;20055;-69
2023/05/18 04:35:43;;;;;;;7.43;2.35;;;;;;;7.72;76.44;100992.94;10442825;28;20091;-70
2023/05/18 04:40:46;;;;;;;5.70;2.00;;;;;;;7.91;75.37;100985.84;10442131;28;20053;-70
2023/05/18 04:45:50;;;;;;;9.05;3.28;;;;;;;7.79;75.63;100981.53;10441873;28;20049;-70
2023/05/18 04:50:54;;;;;;;5.95;2.22;;;;;;;7.89;72.93;100985.00;10441861;28;20045;-70
2023/05/18 04:55:56;;;;;;;4.97;2.00;;;;;;;8.05;71.41;100992.75;10460029;28;20090;-71
2023/05/18 05:00:58;;;;;;;10.77;2.83;;;;;;;8.26;71.02;101001.34;10459945;28;20051;-70
2023/05/18 05:06:01;;;;;;;10.52;2.50;;;;;;;8.40;70.11;100996.91;10440728;28;20037;-70
2023/05/18 05:11:03;;;;;;;6.93;2.30;;;;;;;8.64;69.52;101000.22;10441044;28;20045;-70
2023/05/18 05:16:05;;;;;;;8.68;2.85;;;;;;;8.80;67.67;101001.81;10458518;28;20120;-70
2023/05/18 05:21:08;;;;;;;8.23;2.58;;;;;;;8.62;68.72;101005.47;10440723;28;20053;-70
2023/05/18 05:26:10;;;;;;;5.97;2.75;;;;;;;8.68;69.09;101007.19;10440913;28;20110;-71
2023/05/18 05:31:12;;;;;;;6.60;2.45;;;;;;;8.83;67.12;101014.91;10440066;28;20113;-70
2023/05/18 05:36:14;;;;;;;14.52;2.72;;;;;;;8.95;64.58;101004.31;10439781;28;20464;-69
2023/05/18 05:41:16;;;;;;;12.95;2.83;;;;;;;9.02;64.60;101005.09;10458383;28;20041;-70
2023/05/18 05:46:18;;;;;;;8.27;2.45;;;;;;;9.95;61.44;101004.00;10439641;28;20068;-71
2023/05/18 05:51:23;;;;;;;7.00;2.30;;;;;;;10.17;60.22;101004.56;10439851;28;20048;-70
2023/05/18 05:56:25;;;;;;;4.72;1.90;;;;;;;10.53;59.36;101005.78;10439553;28;20068;-70
2023/05/18 06:01:27;;;;;;;10.02;2.42;;;;;;;10.85;57.73;101010.53;10438788;28;20068;-71
2023/05/18 06:06:32;;;;;;;8.43;2.65;;;;;;;11.40;56.95;101008.63;10439048;28;20052;-70
2023/05/18 06:11:34;;;;;;;6.13;2.08;;;;;;;11.65;54.78;101016.94;10438409;28;20140;-70
2023/05/18 06:16:37;;;;;;;7.75;2.25;;;;;;;12.32;52.15;101022.53;10437702;28;20556;-70
2023/05/18 06:21:39;;;;;;;7.07;2.30;;;;;;;12.63;52.26;101026.16;10438411;28;20060;-71
2023/05/18 06:26:42;;;;;;;7.78;2.50;;;;;;;12.22;53.08;101027.16;10438392;28;20045;-71
2023/05/18 06:32:12;;;;;;;7.68;2.20;;;;;;;13.02;50.89;101026.06;10438091;28;20075;-70
2023/05/18 06:37:16;;;;;;;4.28;1.85;;;;;;;13.33;48.47;101027.94;10437896;28;20045;-70
2023/05/18 06:42:18;;;;;;;5.50;1.40;;;;;;;13.53;47.03;101037.94;10421630;28;20509;-70
2023/05/18 06:47:35;;;;;;;4.45;1.65;;;;;;;13.18;47.79;101044.13;10437895;28;20155;-70
2023/05/18 06:52:38;;;;;;;4.97;1.75;;;;;;;13.29;49.58;101050.91;10438947;28;20042;-71
2023/05/18 06:57:40;;;;;;;5.38;1.40;;;;;;;13.17;47.10;101061.75;10437755;28;20052;-70
2023/05/18 07:02:44;;;;;;;4.63;1.77;;;;;;;13.59;47.01;101048.31;10437928;28;20128;-71
2023/05/18 07:07:46;;;;;;;5.50;1.90;;;;;;;13.45;45.22;101046.06;10437415;28;20049;-71
2023/05/18 07:12:48;;;;;;;4.85;1.38;;;;;;;13.40;45.85;101045.31;10437956;28;20045;-70
2023/05/18 07:17:50;;;;;;;5.57;1.45;;;;;;;13.31;44.22;101051.72;10455259;28;20045;-70
2023/05/18 07:22:54;;;;;;;3.20;1.10;;;;;;;13.23;45.58;101051.03;10437469;28;20560;-70
2023/05/18 07:27:56;;;;;;;7.40;1.63;;;;;;;13.53;46.12;101048.50;10441043;28;20045;-69
2023/05/18 07:32:58;;;;;;;5.20;1.42;;;;;;;13.88;44.33;101050.13;10445712;28;20057;-69
2023/05/18 07:38:00;;;;;;;4.70;1.48;;;;;;;13.93;44.43;101035.00;10445324;28;20045;-70
2023/05/18 07:43:01;;;;;;;6.43;1.70;;;;;;;14.05;44.44;101032.00;10462466;28;20033;-71
2023/05/18 07:48:03;;;;;;;5.85;1.70;;;;;;;13.81;44.12;101030.06;10462154;28;20045;-70
2023/05/18 07:53:05;;;;;;;3.45;1.17;;;;;;;14.00;45.82;101041.84;10444149;28;20094;-71
2023/05/18 07:58:07;;;;;;;5.45;1.33;;;;;;;13.64;44.33;101041.16;10461834;28;20043;-71
2023/05/18 08:03:08;;;;;;;5.85;1.40;;;;;;;13.42;43.89;101037.38;10444481;28;20047;-70
2023/05/18 08:08:14;;;;;;;4.43;1.23;;;;;;;14.06;43.01;101033.72;10461545;28;20045;-70
2023/05/18 08:13:15;;;;;;;7.05;1.50;;;;;;;14.25;41.86;101033.16;10443057;28;20068;-70
2023/05/18 08:18:17;;;;;;;4.32;1.35;;;;;;;14.29;41.53;101040.94;10443315;28;20047;-69
2023/05/18 08:23:19;;;;;;;4.15;1.15;;;;;;;13.85;43.07;101031.72;10460591;28;20049;-69
2023/05/18 08:28:21;;;;;;;3.50;1.10;;;;;;;14.24;42.90;101034.06;10442914;28;20101;-69
2023/05/18 08:33:23;;;;;;;5.68;1.20;;;;;;;14.19;42.08;101039.50;10460186;28;20041;-69
2023/05/18 08:38:25;;;;;;;6.55;1.60;;;;;;;13.54;43.26;101032.59;10441159;28;20450;-69
2023/05/18 08:43:32;;;;;;;2.45;0.98;;;;;;;13.29;43.30;101021.00;10460747;28;20045;-70
2023/05/18 08:48:35;;;;;;;4.55;1.20;;;;;;;13.56;44.88;101022.84;10425642;28;20135;-70
2023/05/18 08:53:38;;;;;;;5.38;1.20;;;;;;;13.76;44.98;101029.34;10441251;28;20048;-69
2023/05/18 08:58:46;;;;;;;7.32;1.85;;;;;;;13.91;45.25;101026.25;10458804;28;20044;-69
2023/05/18 09:03:49;;;;;;;7.05;1.98;;;;;;;14.45;43.54;101021.97;10459754;28;20041;-68
2023/05/18 09:08:58;;;;;;;4.72;1.65;;;;;;;14.57;43.14;101027.75;10459370;28;20045;-67
2023/05/18 09:14:00;;;;;;;4.40;1.73;;;;;;;14.76;43.68;101021.84;10459201;28;20094;-67
2023/05/18 09:19:02;;;;;;;4.35;1.83;;;;;;;15.09;42.00;101014.53;10418350;28;20058;-69
2023/05/18 09:24:05;;;;;;;4.90;1.17;;;;;;;15.53;43.16;101015.59;10417976;28;20037;-69
2023/05/18 09:29:18;;;;;;;6.07;1.85;;;;;;;15.66;41.74;101002.78;10417234;28;20526;-68
2023/05/18 09:34:20;;;;;;;8.05;1.25;;;;;;;15.17;40.52;101008.97;10400286;28;20089;-69
2023/05/18 09:39:22;;;;;;;6.10;1.50;;;;;;;15.02;41.34;101002.44;10417052;28;20056;-70
2023/05/18 09:44:33;;;;;;;4.95;1.38;;;;;;;14.95;42.21;101001.78;10429358;23;20069;-75
2023/05/18 09:49:36;;;;;;;3.17;1.23;;;;;;;15.14;41.12;101002.03;10417716;28;20037;-74
2023/05/18 09:54:38;;;;;;;8.55;1.40;;;;;;;15.45;40.95;100999.13;10399352;28;20417;-75
2023/05/18 09:59:40;;;;;;;9.65;1.58;;;;;;;15.42;41.40;101001.88;10417283;28;20049;-75
2023/05/18 10:04:43;;;;;;;4.70;1.88;;;;;;;15.63;40.81;101002.91;10417619;28;20495;-75
2023/05/18 10:09:45;;;;;;;5.05;1.90;;;;;;;15.82;41.29;101003.94;10416529;28;20132;-75
2023/05/18 10:14:48;;;;;;;11.75;1.70;;;;;;;15.83;40.32;100995.06;10415179;28;20061;-75
2023/05/18 10:19:54;;;;;;;3.10;1.20;;;;;;;15.92;40.73;101000.94;10416294;28;20072;-75
2023/05/18 10:24:57;;;;;;;4.70;1.17;;;;;;;15.78;39.33;100989.09;10398712;28;20038;-76
2023/05/18 10:30:03;;;;;;;5.38;1.50;;;;;;;15.52;39.22;100984.72;10415995;28;20442;-74
2023/05/18 10:35:07;;;;;;;4.45;1.63;;;;;;;15.92;38.99;100987.69;10414705;28;20522;-74
2023/05/18 10:40:11;;;;;;;5.32;1.38;;;;;;;16.40;38.69;100979.56;10415896;28;20045;-74
2023/05/18 10:45:14;;;;;;;3.92;1.10;;;;;;;16.50;37.82;100980.91;10415163;28;20091;-75
2023/05/18 10:50:16;;;;;;;3.72;1.30;;;;;;;16.74;37.42;100972.91;10416051;28;20049;-75
2023/05/18 10:55:18;;;;;;;5.78;1.40;;;;;;;16.67;37.60;100971.41;10415201;28;20033;-76
2023/05/18 11:00:20;;;;;;;5.90;1.10;;;;;;;16.30;37.31;100964.97;10414969;28;20045;-75
2023/05/18 11:05:24;;;;;;;3.53;1.00;;;;;;;16.59;37.17;100977.00;10422248;28;20065;-76
2023/05/18 11:10:33;;;;;;;4.28;1.33;;;;;;;17.04;37.51;100962.72;10423534;28;20460;-75
2023/05/18 11:15:53;;;;;;;8.13;1.42;;;;;;;17.24;36.55;100956.56;10423686;28;20116;-75
2023/05/18 11:20:55;;;;;;;12.13;1.48;;;;;;;17.18;36.66;100954.16;10423752;28;20045;-75
2023/05/18 11:26:03;;;;;;;3.90;1.40;;;;;;;17.08;37.67;100951.03;10422943;28;20034;-73
2023/05/18 11:31:05;;;;;;;4.30;1.33;;;;;;;16.93;37.21;100949.94;10422585;28;20096;-75
2023/05/18 11:36:13;;;;;;;2.97;1.40;;;;;;;17.06;37.41;100947.59;10404518;28;20414;-74
2023/05/18 11:41:43;;;;;;;4.65;1.33;;;;;;;16.73;38.32;100948.13;10403899;28;20076;-73
2023/05/18 11:46:58;;;;;;;4.35;0.90;;;;;;;17.30;38.53;100935.00;10418771;28;20054;-74
2023/05/18 11:52:13;;;;;;;4.70;1.02;;;;;;;17.49;36.59;100945.69;10421329;28;20384;-76
2023/05/18 11:57:16;;;;;;;4.50;1.20;;;;;;;17.20;37.30;100939.03;10403348;28;20052;-75
2023/05/18 12:02:27;;;;;;;4.00;1.08;;;;;;;16.79;37.06;100941.72;10403437;28;20084;-75
2023/05/18 12:07:33;;;;;;;2.83;0.93;;;;;;;17.05;37.53;100930.81;10420826;28;20467;-74
2023/05/18 12:12:35;;;;;;;7.63;1.73;;;;;;;16.96;37.29;100920.59;10402817;28;20116;-74
2023/05/18 12:17:44;;;;;;;3.20;1.10;;;;;;;17.08;38.14;100916.50;10402497;28;20065;-75
2023/05/18 12:22:51;;;;;;;2.92;1.20;;;;;;;17.59;36.82;100923.91;10402148;28;20141;-75
2023/05/18 12:27:55;;;;;;;18.35;1.42;;;;;;;17.02;38.13;100930.94;10402526;28;20454;-73
2023/05/18 12:32:58;;;;;;;5.78;1.27;;;;;;;16.99;37.47;100919.56;10420130;28;20037;-73
2023/05/18 12:38:00;;;;;;;3.25;0.90;;;;;;;16.76;37.98;100910.81;10403518;28;20088;-74
2023/05/18 12:43:03;;;;;;;3.63;1.00;;;;;;;16.31;38.29;100924.22;10418877;28;20068;-74
2023/05/18 12:48:10;;;;;;;2.80;1.10;;;;;;;16.08;39.21;100922.53;10384844;28;20076;-73
2023/05/18 12:53:12;;;;;;;2.55;1.02;;;;;;;16.03;38.33;100922.72;10419007;28;20037;-74
2023/05/18 12:58:15;;;;;;;3.70;1.23;;;;;;;16.84;37.57;100916.69;10400871;28;20080;-74
2023/05/18 13:03:23;;;;;;;4.97;1.17;;;;;;;17.12;38.27;100916.31;10401526;28;20099;-74
2023/05/18 13:08:24;;;;;;;3.30;0.95;;;;;;;17.39;37.65;100913.31;10400506;28;20050;-75
2023/05/18 13:13:26;;;;;;;3.25;1.00;;;;;;;17.32;37.22;100909.25;10401202;28;20037;-75
2023/05/18 13:18:28;;;;;;;4.05;1.13;;;;;;;17.48;38.02;100904.91;10417839;28;20053;-75
2023/05/18 13:23:30;;;;;;;8.02;1.10;;;;;;;17.62;37.01;100899.84;10399473;28;20033;-75
2023/05/18 13:28:31;;;;;;;3.38;1.10;;;;;;;17.65;36.96;100904.13;10417297;28;20037;-73
2023/05/18 13:33:33;;;;;;;4.50;1.13;;;;;;;17.49;36.58;100905.81;10399765;28;20046;-73
2023/05/18 13:38:36;;;;;;;5.15;1.40;;;;;;;17.70;35.69;100901.25;10399362;28;20042;-73
2023/05/18 13:43:38;;;;;;;2.97;1.10;;;;;;;17.92;36.76;100903.78;10399269;28;20045;-73
2023/05/18 13:48:40;;;;;;;3.10;1.10;;;;;;;17.24;36.46;100903.41;10399394;28;20156;-73
2023/05/18 13:53:41;;;;;;;3.65;1.20;;;;;;;16.97;37.55;100905.53;10417162;28;20051;-73
2023/05/18 13:58:43;;;;;;;5.15;1.30;;;;;;;17.06;36.82;100899.78;10416752;28;20041;-73
2023/05/18 14:03:45;;;;;;;4.45;1.17;;;;;;;17.20;36.29;100897.38;10417151;28;20048;-73
2023/05/18 14:08:47;;;;;;;4.10;1.30;;;;;;;17.55;36.91;100893.09;10399227;28;20041;-75
2023/05/18 14:13:49;;;;;;;2.65;1.05;;;;;;;17.13;36.31;100898.56;10416549;28;20395;-73
2023/05/18 14:18:51;;;;;;;4.75;1.20;;;;;;;16.82;37.16;100891.09;10417008;28;20060;-73
2023/05/18 14:23:52;;;;;;;3.95;0.98;;;;;;;16.80;37.21;100890.31;10398863;28;20041;-74
2023/05/18 14:28:55;;;;;;;3.90;1.30;;;;;;;17.01;37.63;100884.06;10416130;28;20507;-74
2023/05/18 14:33:56;;;;;;;5.05;1.20;;;;;;;16.73;37.62;100892.38;10416363;28;20038;-74
2023/05/18 14:38:58;;;;;;;3.05;1.15;;;;;;;16.51;37.37;100887.13;10397028;28;20057;-74
2023/05/18 14:44:02;;;;;;;2.75;0.90;;;;;;;16.50;36.55;100884.50;10397909;28;20468;-74
2023/05/18 14:49:04;;;;;;;7.90;1.55;;;;;;;16.30;37.98;100890.69;10415307;28;20046;-75
2023/05/18 14:54:06;;;;;;;2.00;1.08;;;;;;;16.11;38.16;100880.84;10416127;28;20038;-75
2023/05/18 14:59:08;;;;;;;2.75;0.95;;;;;;;15.99;37.11;100885.78;10415129;28;20491;-74
2023/05/18 15:04:10;;;;;;;3.17;1.00;;;;;;;15.81;38.38;100877.63;10414878;28;20088;-75
2023/05/18 15:09:13;;;;;;;3.42;1.63;;;;;;;16.17;37.99;100868.25;10416244;28;20049;-75
2023/05/18 15:14:15;;;;;;;6.13;1.98;;;;;;;16.79;38.12;100862.06;10416324;28;20510;-74
2023/05/18 15:19:17;;;;;;;5.28;1.77;;;;;;;17.59;35.81;100862.75;10399310;28;20092;-74
2023/05/18 15:24:20;;;;;;;2.42;1.15;;;;;;;18.02;35.11;100866.03;10399658;28;20129;-75
2023/05/18 15:29:22;;;;;;;7.10;1.20;;;;;;;18.66;34.21;100854.75;10415669;28;20044;-74
2023/05/18 15:34:24;;;;;;;4.93;1.77;;;;;;;18.36;34.79;100862.53;10414953;28;20511;-74
2023/05/18 15:39:25;;;;;;;2.50;1.00;;;;;;;17.80;36.24;100860.06;10414115;28;20440;-74
2023/05/18 15:44:27;;;;;;;3.35;1.23;;;;;;;17.01;36.31;100857.50;10408941;23;20056;-70
2023/05/18 15:49:30;;;;;;;3.17;1.42;;;;;;;16.67;37.43;100847.47;10416212;28;20065;-70
2023/05/18 15:54:32;;;;;;;3.47;1.27;;;;;;;16.09;38.49;100853.50;10420702;28;20509;-70
2023/05/18 15:59:33;;;;;;;1.98;1.33;;;;;;;16.05;39.31;100851.88;10417931;28;20430;-71
2023/05/18 16:04:35;;;;;;;7.22;1.95;;;;;;;16.17;38.47;100852.31;10417489;28;20041;-71
2023/05/18 16:09:37;;;;;;;3.00;1.40;;;;;;;16.33;38.16;100851.59;10417007;28;20041;-70
2023/05/18 16:14:38;;;;;;;5.70;1.92;;;;;;;16.27;38.35;100838.59;10417102;28;20029;-70
2023/05/18 16:19:40;;;;;;;3.88;1.60;;;;;;;16.42;38.26;100834.41;10419294;28;20052;-69
2023/05/18 16:24:43;;;;;;;4.45;1.65;;;;;;;16.68;37.83;100843.91;10418971;28;20144;-69
2023/05/18 16:29:44;;;;;;;4.07;1.48;;;;;;;16.70;37.89;100835.88;10420390;28;20045;-69
2023/05/18 16:34:46;;;;;;;3.13;1.60;;;;;;;16.68;38.04;100832.41;10400714;28;20045;-68
2023/05/18 16:39:48;;;;;;;4.00;2.45;;;;;;;16.75;38.54;100834.78;10419935;28;20052;-69
2023/05/18 16:44:50;;;;;;;6.05;2.15;;;;;;;16.49;39.02;100829.72;10400873;28;20108;-71
2023/05/18 16:49:52;;;;;;;4.90;1.65;;;;;;;16.58;38.83;100830.16;10384182;28;20050;-71
2023/05/18 16:54:54;;;;;;;3.22;1.42;;;;;;;16.43;39.08;100825.53;10417954;28;20108;-69
2023/05/18 16:59:55;;;;;;;4.43;1.48;;;;;;;16.30;38.86;100821.69;10416997;28;20067;-69
2023/05/18 17:04:57;;;;;;;3.75;1.80;;;;;;;16.20;38.89;100825.66;10417453;28;20517;-69
2023/05/18 17:09:59;;;;;;;4.30;1.85;;;;;;;16.08;39.39;100824.41;10399602;28;20387;-69
2023/05/18 17:15:01;;;;;;;3.60;1.65;;;;;;;15.75;38.22;100832.78;10400680;28;20060;-69
2023/05/18 17:20:05;;;;;;;3.40;1.30;;;;;;;15.63;38.28;100831.50;10416803;28;20051;-68
2023/05/18 17:25:07;;;;;;;3.53;1.33;;;;;;;15.62;37.22;100839.47;10416930;28;20457;-68
2023/05/18 17:30:09;;;;;;;4.25;1.35;;;;;;;15.50;37.87;100838.19;10417053;28;20048;-68
2023/05/18 17:35:11;;;;;;;4.85;2.58;;;;;;;15.37;37.87;100844.91;10416974;28;20044;-69
2023/05/18 17:40:15;;;;;;;4.60;2.33;;;;;;;15.12;38.55;100843.16;10400894;28;20060;-70
2023/05/18 17:45:17;;;;;;;6.47;2.53;;;;;;;15.21;38.56;100843.75;10416463;28;20133;-70
2023/05/18 17:50:19;;;;;;;3.60;1.25;;;;;;;15.21;38.29;100846.41;10416711;28;20068;-70
2023/05/18 17:55:20;;;;;;;3.90;2.03;;;;;;;15.38;38.65;100836.88;10416219;28;20124;-70
2023/05/18 18:00:22;;;;;;;4.80;2.42;;;;;;;15.29;39.36;100849.63;10416375;28;20056;-70
2023/05/18 18:05:24;;;;;;;3.75;2.00;;;;;;;15.05;38.80;100841.69;10416145;28;20037;-70
2023/05/18 18:10:26;;;;;;;4.22;1.75;;;;;;;15.07;39.20;100847.78;10416251;28;20045;-70
2023/05/18 18:15:28;;;;;;;4.78;1.30;;;;;;;15.07;39.70;100849.56;10415826;28;20120;-70
2023/05/18 18:20:35;;;;;;;4.03;2.53;;;;;;;14.93;40.13;100841.28;10397582;28;20515;-70
2023/05/18 18:25:37;;;;;;;3.28;1.80;;;;;;;14.76;40.12;100842.75;10416003;28;20121;-70
2023/05/18 18:30:40;;;;;;;4.90;1.85;;;;;;;14.89;39.49;100846.69;10416091;28;20046;-69
2023/05/18 18:35:42;;;;;;;5.68;2.00;;;;;;;14.72;40.39;100845.56;10415294;28;20041;-70
2023/05/18 18:40:44;;;;;;;2.83;2.13;;;;;;;14.52;40.67;100844.50;10415136;28;20084;-68
2023/05/18 18:45:46;;;;;;;3.33;2.20;;;;;;;14.50;41.35;100846.31;10414664;28;20059;-70
2023/05/18 18:50:48;;;;;;;5.35;4.80;;;;;;;14.51;41.05;100852.47;10415390;28;20470;-69
2023/05/18 18:55:50;;;;;;;4.40;1.40;;;;;;;14.32;41.62;100852.22;10397448;28;20040;-70
2023/05/18 19:00:51;;;;;;;3.28;1.30;;;;;;;14.36;41.94;100856.50;10414939;28;20076;-69
2023/05/18 19:05:53;;;;;;;3.00;1.38;;;;;;;14.34;41.99;100863.59;10415710;28;20065;-70
2023/05/18 19:10:55;;;;;;;3.97;1.80;;;;;;;14.35;41.82;100860.91;10414445;28;20045;-70
2023/05/18 19:15:57;;;;;;;3.67;1.55;;;;;;;14.30;42.68;100860.22;10414225;28;20044;-70
2023/05/18 19:21:00;;;;;;;3.90;1.77;;;;;;;14.08;42.82;100873.28;10415635;28;20041;-70
2023/05/18 19:26:02;;;;;;;4.18;2.10;;;;;;;14.06;43.05;100877.75;10402703;28;20045;-69
2023/05/18 19:31:04;;;;;;;4.32;2.13;;;;;;;14.09;42.97;100884.72;10422128;28;20125;-70
2023/05/18 19:36:06;;;;;;;2.67;1.65;;;;;;;14.11;43.36;100881.09;10421747;28;20030;-70
2023/05/18 19:41:07;;;;;;;3.80;1.77;;;;;;;13.95;43.82;100894.88;10421347;28;20161;-70
2023/05/18 19:46:10;;;;;;;4.20;1.70;;;;;;;13.94;43.99;100894.00;10420993;28;20061;-69
2023/05/18 19:51:11;;;;;;;4.07;1.60;;;;;;;13.66;44.88;100894.00;10421878;28;20129;-69
2023/05/18 19:56:13;;;;;;;4.00;1.85;;;;;;;13.75;45.08;100900.78;10421032;28;20048;-70
2023/05/18 20:01:17;;;;;;;6.40;4.13;;;;;;;13.68;45.34;100901.88;10403651;28;20045;-71
2023/05/18 20:06:19;;;;;;;6.72;5.20;;;;;;;13.73;45.85;100900.84;10421305;28;20458;-71
2023/05/18 20:11:21;;;;;;;4.80;2.40;;;;;;;13.69;46.12;100900.97;10420415;28;20083;-69
2023/05/18 20:16:25;;;;;;;4.90;2.63;;;;;;;13.51;46.29;100911.19;10420928;28;20126;-69
2023/05/18 20:21:27;;;;;;;5.32;2.55;;;;;;;13.53;46.08;100909.34;10420002;28;20049;-69
2023/05/18 20:26:28;;;;;;;4.82;2.25;;;;;;;13.48;46.75;100910.41;10419570;28;20041;-69
2023/05/18 20:31:32;;;;;;;4.45;2.58;;;;;;;13.33;47.44;100906.47;10402155;28;20072;-70
2023/05/18 20:36:34;;;;;;;6.03;2.40;;;;;;;13.35;47.53;100918.69;10417992;28;20065;-69
2023/05/18 20:41:38;;;;;;;5.25;2.95;;;;;;;13.47;47.55;100913.97;10418929;28;20041;-69
2023/05/18 20:46:41;;;;;;;5.22;2.75;;;;;;;13.23;47.90;100912.91;10401895;28;20034;-69
2023/05/18 20:51:43;;;;;;;3.30;2.22;;;;;;;13.09;48.88;100916.75;10418910;28;20540;-69
2023/05/18 20:56:45;;;;;;;3.72;2.30;;;;;;;13.01;49.16;100921.38;10400686;28;20049;-69
2023/05/18 21:01:46;;;;;;;4.53;2.38;;;;;;;12.82;49.26;100910.47;10418836;28;20045;-69
2023/05/18 21:06:49;;;;;;;4.78;2.40;;;;;;;12.91;49.72;100912.00;10418523;28;20045;-69
2023/05/18 21:11:50;;;;;;;4.70;2.40;;;;;;;12.93;49.74;100911.97;10418310;28;20530;-69
2023/05/18 21:16:52;;;;;;;4.07;2.28;;;;;;;12.76;51.30;100910.66;10401647;28;20037;-69
2023/05/18 21:21:54;;;;;;;4.80;3.40;;;;;;;12.74;51.98;100909.81;10418014;28;20121;-69
2023/05/18 21:26:56;;;;;;;5.78;3.92;;;;;;;12.75;53.14;100910.66;10418152;28;20092;-70
2023/05/18 21:31:58;;;;;;;5.18;3.53;;;;;;;12.59;51.66;100902.31;10417267;28;20179;-70
2023/05/18 21:37:00;;;;;;;5.75;3.58;;;;;;;12.63;52.30;100914.50;10417374;28;20038;-69
2023/05/18 21:42:34;;;;;;;6.47;4.45;;;;;;;12.42;52.58;100899.25;10417631;28;20050;-69
2023/05/18 21:47:36;;;;;;;3.67;3.22;;;;;;;12.41;52.30;100897.50;10254217;28;20055;-73
2023/05/18 21:52:37;;;;;;;4.75;3.05;;;;;;;12.39;53.86;100900.16;10256233;29;20110;-73
2023/05/18 21:57:39;;;;;;;6.45;3.85;;;;;;;12.25;53.73;100892.63;10254806;28;20051;-73
2023/05/18 22:02:41;;;;;;;4.63;2.88;;;;;;;12.31;53.32;100897.75;10256473;29;20067;-73
2023/05/18 22:07:43;;;;;;;4.03;2.65;;;;;;;12.32;53.45;100895.97;10255306;28;20046;-73
2023/05/18 22:12:44;;;;;;;4.70;3.00;;;;;;;12.23;53.97;100898.84;10255103;29;20053;-73
2023/05/18 22:17:46;;;;;;;3.92;2.63;;;;;;;12.13;54.87;100890.31;10255148;28;20043;-73
2023/05/18 22:22:48;;;;;;;4.28;2.60;;;;;;;12.22;56.39;100887.44;10255607;29;20101;-72
2023/05/18 22:27:51;;;;;;;3.90;2.70;;;;;;;12.14;57.34;100888.53;10255005;28;20046;-72
2023/05/18 22:32:53;;;;;;;6.75;3.53;;;;;;;12.15;57.88;100892.91;10256049;29;20039;-72
2023/05/18 22:37:55;;;;;;;3.70;3.13;;;;;;;12.08;59.01;100885.13;10254056;28;20432;-72
2023/05/18 22:42:57;;;;;;;4.18;3.05;;;;;;;11.87;58.47;100890.94;10254915;29;20519;-73
2023/05/18 22:48:00;;;;;;;3.20;2.45;;;;;;;11.84;58.73;100886.56;10254248;28;20075;-73
2023/05/18 22:53:03;;;;;;;4.40;2.67;;;;;;;11.94;58.05;100881.09;10254898;29;20043;-73
2023/05/18 22:58:05;;;;;;;4.28;2.90;;;;;;;11.84;58.49;100880.44;10255864;28;20067;-73
2023/05/18 23:03:07;;;;;;;5.82;2.97;;;;;;;12.15;58.49;100879.72;10261762;29;20039;-72
2023/05/18 23:08:09;;;;;;;5.05;3.17;;;;;;;12.36;57.43;100869.50;10261777;28;20043;-72
2023/05/18 23:13:15;;;;;;;4.35;2.75;;;;;;;12.09;58.96;100875.47;10262177;29;20127;-72
2023/05/18 23:18:17;;;;;;;5.38;2.92;;;;;;;11.79;59.98;100871.75;10261186;28;20493;-73